createdAt,value
2017-08-26T00:01:09.279Z,81.50
2017-08-26T00:03:37.623Z,81.80
2017-08-26T00:06:06.177Z,81.90
2017-08-26T00:08:34.552Z,81.50
2017-08-26T00:11:02.876Z,81.60
2017-08-26T00:13:31.622Z,82.10
2017-08-26T00:15:59.960Z,82.30
2017-08-26T00:18:28.352Z,82.40
2017-08-26T00:20:56.830Z,82.50
2017-08-26T00:23:25.266Z,82.50
2017-08-26T00:25:53.917Z,82.50
2017-08-26T00:28:22.321Z,82.60
2017-08-26T00:30:50.662Z,82.70
2017-08-26T00:33:19.049Z,82.30
2017-08-26T00:35:47.728Z,82.20
2017-08-26T00:38:16.089Z,82.30
2017-08-26T00:40:44.428Z,81.50
2017-08-26T00:43:12.946Z,81.30
2017-08-26T00:45:41.289Z,81.60
2017-08-26T00:48:09.685Z,81.70
2017-08-26T00:50:38.285Z,81.80
2017-08-26T00:53:06.664Z,82.20
2017-08-26T00:55:35.030Z,82.30
2017-08-26T00:58:03.772Z,82.30
2017-08-26T01:00:32.133Z,82.50
2017-08-26T01:03:00.493Z,82.40
2017-08-26T01:05:29.077Z,82.20
2017-08-26T01:07:57.441Z,82.60
2017-08-26T01:10:25.815Z,82.90
2017-08-26T01:12:54.192Z,82.70
2017-08-26T01:15:22.538Z,82.70
2017-08-26T01:17:50.916Z,82.70
2017-08-26T01:20:19.567Z,82.70
2017-08-26T01:22:47.882Z,83.20
2017-08-26T01:25:16.229Z,83.20
2017-08-26T01:27:44.753Z,81.90
2017-08-26T01:30:13.088Z,81.70
2017-08-26T01:32:41.420Z,82.00
2017-08-26T01:35:10.021Z,81.60
2017-08-26T01:37:38.333Z,81.60
2017-08-26T01:40:06.660Z,81.00
2017-08-26T01:42:35.511Z,81.40
2017-08-26T01:45:04.906Z,80.70
2017-08-26T01:47:33.296Z,80.70
2017-08-26T01:50:02.085Z,80.50
2017-08-26T01:52:30.494Z,80.10
2017-08-26T01:54:58.841Z,79.30
2017-08-26T01:57:27.520Z,79.20
2017-08-26T01:59:55.908Z,79.40
2017-08-26T02:02:24.524Z,79.90
2017-08-26T02:04:53.291Z,80.10
2017-08-26T02:07:22.681Z,80.70
2017-08-26T02:09:51.006Z,80.00
2017-08-26T02:12:19.684Z,79.80
2017-08-26T02:14:48.067Z,79.50
2017-08-26T02:17:16.437Z,79.10
2017-08-26T02:19:45.231Z,78.80
2017-08-26T02:22:13.588Z,78.80
2017-08-26T02:24:42.718Z,78.70
2017-08-26T02:27:11.469Z,78.50
2017-08-26T02:29:40.408Z,79.00
2017-08-26T02:32:08.741Z,79.00
2017-08-26T02:34:37.687Z,79.20
2017-08-26T02:37:06.054Z,78.90
2017-08-26T02:39:34.608Z,78.30
2017-08-26T02:42:03.336Z,78.30
2017-08-26T02:44:32.458Z,78.50
2017-08-26T02:47:00.838Z,78.50
2017-08-26T02:49:29.391Z,79.70
2017-08-26T02:51:57.774Z,79.90
2017-08-26T02:54:26.201Z,80.40
2017-08-26T02:56:54.842Z,79.70
2017-08-26T02:59:23.189Z,80.20
2017-08-26T03:01:51.532Z,80.00
2017-08-26T03:04:20.323Z,79.80
2017-08-26T03:06:48.643Z,80.00
2017-08-26T03:09:17.012Z,80.70
2017-08-26T03:11:45.605Z,81.20
2017-08-26T03:14:13.975Z,81.60
2017-08-26T03:16:42.312Z,81.40
2017-08-26T03:19:10.997Z,80.80
2017-08-26T03:21:39.365Z,80.70
2017-08-26T03:24:07.752Z,80.80
2017-08-26T03:26:36.290Z,80.40
2017-08-26T03:29:04.644Z,80.40
2017-08-26T03:31:33.004Z,80.40
2017-08-26T03:34:01.506Z,80.30
2017-08-26T03:36:29.884Z,80.70
2017-08-26T03:38:58.264Z,80.80
2017-08-26T03:41:26.949Z,81.70
2017-08-26T03:43:55.864Z,81.30
2017-08-26T03:46:24.223Z,81.40
2017-08-26T03:48:52.781Z,81.60
2017-08-26T03:51:21.101Z,81.80
2017-08-26T03:53:49.464Z,81.80
2017-08-26T03:56:18.165Z,81.70
2017-08-26T03:58:46.517Z,81.50
2017-08-26T04:01:14.949Z,81.20
2017-08-26T04:03:43.464Z,82.90
2017-08-26T04:06:11.776Z,83.20
2017-08-26T04:08:40.158Z,83.20
2017-08-26T04:11:09.066Z,83.30
2017-08-26T04:13:37.461Z,83.30
2017-08-26T04:16:06.970Z,83.10
2017-08-26T04:18:35.532Z,83.40
2017-08-26T04:21:03.898Z,83.30
2017-08-26T04:23:32.326Z,83.30
2017-08-26T04:26:00.702Z,83.40
2017-08-26T04:28:29.107Z,83.50
2017-08-26T04:30:57.513Z,83.40
2017-08-26T04:33:26.037Z,83.60
2017-08-26T04:35:54.639Z,83.70
2017-08-26T04:38:23.091Z,83.90
2017-08-26T04:40:51.891Z,84.00
2017-08-26T04:43:20.236Z,83.90
2017-08-26T04:45:48.666Z,83.80
2017-08-26T04:48:17.401Z,83.70
2017-08-26T04:50:45.737Z,83.10
2017-08-26T04:53:14.109Z,83.40
2017-08-26T04:55:42.489Z,83.30
2017-08-26T04:58:11.837Z,83.10
2017-08-26T05:00:41.041Z,83.40
2017-08-26T05:03:09.827Z,83.30
2017-08-26T05:05:38.152Z,83.60
2017-08-26T05:08:06.520Z,83.90
2017-08-26T05:10:35.133Z,84.10
2017-08-26T05:13:03.485Z,83.80
2017-08-26T05:15:31.825Z,83.70
2017-08-26T05:18:00.263Z,83.10
2017-08-26T05:20:29.358Z,83.60
2017-08-26T05:22:57.712Z,83.60
2017-08-26T05:25:26.167Z,82.20
2017-08-26T05:27:55.166Z,81.80
2017-08-26T05:30:23.637Z,83.10
2017-08-26T05:32:52.330Z,83.30
2017-08-26T05:35:20.697Z,83.10
2017-08-26T05:37:49.022Z,83.20
2017-08-26T05:40:17.794Z,83.30
2017-08-26T05:42:46.140Z,83.20
2017-08-26T05:45:14.482Z,83.20
2017-08-26T05:47:43.294Z,83.00
2017-08-26T05:50:11.650Z,82.50
2017-08-26T05:52:40.022Z,82.40
2017-08-26T05:55:08.608Z,82.30
2017-08-26T05:57:37.852Z,81.90
2017-08-26T06:00:06.340Z,81.80
2017-08-26T06:02:35.105Z,81.50
2017-08-26T06:05:03.552Z,81.10
2017-08-26T06:07:31.923Z,80.90
2017-08-26T06:10:00.411Z,80.60
2017-08-26T06:12:28.739Z,80.60
2017-08-26T06:14:57.117Z,80.30
2017-08-26T06:17:25.689Z,80.30
2017-08-26T06:19:54.057Z,80.30
2017-08-26T06:22:22.409Z,80.10
2017-08-26T06:24:50.977Z,79.80
2017-08-26T06:27:19.318Z,79.70
2017-08-26T06:29:47.673Z,79.30
2017-08-26T06:32:16.211Z,79.00
2017-08-26T06:34:44.574Z,78.80
2017-08-26T06:37:12.933Z,78.90
2017-08-26T06:39:41.299Z,78.60
2017-08-26T06:42:09.653Z,78.60
2017-08-26T06:44:37.977Z,78.40
2017-08-26T06:47:06.529Z,78.30
2017-08-26T06:49:34.876Z,78.20
2017-08-26T06:52:03.248Z,78.00
2017-08-26T06:54:32.051Z,78.00
2017-08-26T06:57:00.429Z,77.70
2017-08-26T06:59:29.046Z,77.40
2017-08-26T07:01:57.964Z,76.90
2017-08-26T07:04:26.394Z,76.40
2017-08-26T07:06:54.720Z,76.40
2017-08-26T07:09:23.429Z,76.20
2017-08-26T07:11:51.750Z,75.60
2017-08-26T07:14:20.881Z,75.50
2017-08-26T07:16:49.567Z,75.50
2017-08-26T07:19:17.958Z,75.40
2017-08-26T07:21:46.282Z,75.00
2017-08-26T07:24:14.941Z,74.90
2017-08-26T07:26:43.247Z,74.20
2017-08-26T07:29:11.567Z,74.00
2017-08-26T07:31:40.062Z,73.80
2017-08-26T07:34:08.377Z,73.70
2017-08-26T07:36:36.867Z,74.70
2017-08-26T07:39:05.226Z,74.00
2017-08-26T07:41:33.992Z,73.50
2017-08-26T07:44:02.304Z,73.00
2017-08-26T07:46:30.826Z,72.00
2017-08-26T07:48:59.182Z,71.20
2017-08-26T07:51:28.364Z,71.00
2017-08-26T07:53:57.982Z,70.60
2017-08-26T07:56:28.198Z,70.90
2017-08-26T07:58:58.760Z,70.70
2017-08-26T08:01:28.082Z,69.10
2017-08-26T08:03:56.589Z,69.10
2017-08-26T08:06:24.968Z,68.80
2017-08-26T08:08:53.660Z,67.90
2017-08-26T08:11:22.030Z,66.70
2017-08-26T08:13:52.431Z,67.30
2017-08-26T08:16:21.281Z,66.50
2017-08-26T08:18:49.623Z,66.20
2017-08-26T08:21:18.037Z,66.30
2017-08-26T08:23:46.670Z,65.90
2017-08-26T08:26:15.246Z,66.30
2017-08-26T08:28:46.942Z,65.30
2017-08-26T08:31:15.650Z,64.50
2017-08-26T08:33:44.104Z,64.10
2017-08-26T08:36:13.160Z,64.40
2017-08-26T08:38:41.713Z,64.10
2017-08-26T08:41:10.438Z,63.80
2017-08-26T08:43:38.777Z,63.70
2017-08-26T08:46:07.606Z,63.30
2017-08-26T08:48:35.949Z,62.90
2017-08-26T08:51:04.331Z,62.80
2017-08-26T08:53:33.103Z,61.20
2017-08-26T08:56:01.422Z,59.60
2017-08-26T08:58:30.701Z,58.60
2017-08-26T09:01:00.341Z,59.50
2017-08-26T09:03:28.667Z,59.20
2017-08-26T09:05:57.021Z,57.70
2017-08-26T09:08:25.578Z,58.40
2017-08-26T09:10:53.926Z,58.50
2017-08-26T09:13:22.256Z,58.80
2017-08-26T09:15:50.984Z,59.00
2017-08-26T09:18:19.341Z,59.00
2017-08-26T09:20:47.741Z,57.10
2017-08-26T09:23:16.535Z,55.30
2017-08-26T09:25:44.946Z,54.30
2017-08-26T09:28:13.322Z,51.70
2017-08-26T09:30:42.147Z,50.00
2017-08-26T09:33:10.538Z,49.80
2017-08-26T09:35:39.269Z,49.90
2017-08-26T09:38:08.226Z,47.60
2017-08-26T09:40:36.596Z,46.20
2017-08-26T09:43:04.921Z,46.70
2017-08-26T09:45:34.013Z,47.90
2017-08-26T09:48:02.336Z,48.40
2017-08-26T09:50:30.675Z,48.50
2017-08-26T09:52:59.215Z,44.80
2017-08-26T09:55:27.530Z,43.10
2017-08-26T09:57:57.414Z,44.10
2017-08-26T10:00:25.930Z,43.50
2017-08-26T10:02:54.263Z,45.00
2017-08-26T10:05:22.583Z,46.80
2017-08-26T10:07:52.242Z,46.80
2017-08-26T10:10:20.573Z,46.00
2017-08-26T10:12:49.497Z,45.40
2017-08-26T10:15:18.236Z,45.50
2017-08-26T10:17:47.326Z,45.70
2017-08-26T10:20:15.713Z,45.60
2017-08-26T10:22:44.430Z,45.90
2017-08-26T10:25:12.739Z,46.20
2017-08-26T10:27:41.104Z,46.40
2017-08-26T10:30:09.810Z,47.20
2017-08-26T10:32:38.265Z,47.70
2017-08-26T10:35:06.627Z,47.40
2017-08-26T10:37:35.220Z,47.40
2017-08-26T10:40:03.628Z,47.20
2017-08-26T10:42:33.837Z,46.80
2017-08-26T10:45:02.528Z,46.40
2017-08-26T10:47:31.838Z,45.60
2017-08-26T10:50:00.249Z,43.80
2017-08-26T10:52:28.805Z,42.70
2017-08-26T10:54:57.243Z,43.70
2017-08-26T10:57:25.645Z,44.20
2017-08-26T10:59:54.138Z,44.40
2017-08-26T11:02:22.473Z,43.20
2017-08-26T11:04:50.801Z,43.30
2017-08-26T11:07:19.542Z,43.50
2017-08-26T11:09:47.957Z,42.50
2017-08-26T11:12:16.302Z,40.70
2017-08-26T11:14:44.929Z,40.70
2017-08-26T11:17:13.272Z,40.80
2017-08-26T11:19:41.597Z,41.10
2017-08-26T11:22:10.120Z,41.50
2017-08-26T11:24:38.481Z,42.00
2017-08-26T11:27:06.814Z,42.60
2017-08-26T11:29:35.521Z,43.20
2017-08-26T11:32:03.868Z,42.90
2017-08-26T11:34:32.236Z,43.20
2017-08-26T11:37:00.826Z,44.00
2017-08-26T11:39:29.196Z,43.60
2017-08-26T11:41:58.492Z,43.90
2017-08-26T11:44:27.160Z,45.10
2017-08-26T11:46:55.506Z,45.10
2017-08-26T11:49:24.023Z,45.40
2017-08-26T11:51:52.672Z,45.50
2017-08-26T11:54:20.999Z,45.30
2017-08-26T11:56:49.421Z,46.00
2017-08-26T11:59:18.133Z,45.70
2017-08-26T12:01:46.475Z,44.70
2017-08-26T12:04:14.829Z,44.80
2017-08-26T12:06:43.365Z,45.70
2017-08-26T12:09:11.729Z,47.50
2017-08-26T12:11:41.058Z,48.40
2017-08-26T12:14:09.869Z,50.00
2017-08-26T12:16:38.235Z,50.80
2017-08-26T12:19:06.617Z,51.50
2017-08-26T12:21:35.317Z,53.80
2017-08-26T12:24:03.689Z,54.60
2017-08-26T12:26:32.074Z,55.20
2017-08-26T12:29:00.629Z,56.20
2017-08-26T12:31:29.157Z,57.10
2017-08-26T12:33:57.629Z,56.70
2017-08-26T12:36:26.679Z,53.20
2017-08-26T12:38:54.994Z,51.90
2017-08-26T12:41:23.373Z,52.70
2017-08-26T12:43:51.939Z,51.70
2017-08-26T12:46:21.259Z,49.60
2017-08-26T12:48:49.808Z,49.70
2017-08-26T12:51:18.642Z,49.20
2017-08-26T12:53:46.986Z,50.00
2017-08-26T12:56:16.141Z,50.50
2017-08-26T12:58:46.141Z,51.80
2017-08-26T13:01:14.455Z,51.10
2017-08-26T13:03:42.834Z,50.50
2017-08-26T13:06:11.549Z,50.50
2017-08-26T13:08:39.949Z,49.40
2017-08-26T13:11:09.249Z,50.00
2017-08-26T13:13:37.652Z,52.50
2017-08-26T13:16:06.012Z,52.90
2017-08-26T13:18:34.341Z,52.20
2017-08-26T13:21:03.490Z,51.90
2017-08-26T13:23:31.815Z,52.40
2017-08-26T13:26:01.520Z,52.20
2017-08-26T13:28:30.182Z,52.00
2017-08-26T13:30:59.240Z,51.70
2017-08-26T13:33:27.625Z,51.30
2017-08-26T13:35:58.421Z,51.60
2017-08-26T13:38:27.880Z,52.10
2017-08-26T13:40:56.387Z,52.70
2017-08-26T13:43:25.065Z,53.10
2017-08-26T13:45:53.961Z,53.80
2017-08-26T13:48:22.333Z,54.60
2017-08-26T13:50:52.526Z,54.60
2017-08-26T13:53:20.854Z,54.50
2017-08-26T13:55:49.182Z,54.40
2017-08-26T13:58:17.797Z,55.10
2017-08-26T14:00:46.246Z,55.70
2017-08-26T14:03:14.588Z,56.00
2017-08-26T14:05:43.377Z,56.70
2017-08-26T14:08:11.732Z,56.70
2017-08-26T14:10:40.129Z,56.90
2017-08-26T14:13:08.904Z,57.00
2017-08-26T14:15:37.457Z,57.70
2017-08-26T14:18:06.915Z,57.70
2017-08-26T14:20:35.641Z,57.80
2017-08-26T14:23:03.975Z,58.00
2017-08-26T14:25:32.473Z,58.70
2017-08-26T14:28:01.478Z,59.20
2017-08-26T14:30:30.940Z,59.70
2017-08-26T14:32:59.383Z,59.70
2017-08-26T14:35:27.805Z,60.10
2017-08-26T14:37:56.352Z,59.70
2017-08-26T14:40:25.570Z,59.20
2017-08-26T14:42:54.204Z,59.20
2017-08-26T14:45:22.548Z,58.60
2017-08-26T14:47:50.943Z,59.00
2017-08-26T14:50:19.616Z,59.50
2017-08-26T14:52:47.954Z,60.20
2017-08-26T14:55:16.377Z,59.20
2017-08-26T14:57:44.917Z,59.60
2017-08-26T15:00:13.328Z,60.00
2017-08-26T15:02:41.674Z,60.30
2017-08-26T15:05:10.397Z,60.10
2017-08-26T15:07:38.797Z,60.00
2017-08-26T15:10:07.283Z,60.20
2017-08-26T15:12:35.774Z,60.30
2017-08-26T15:15:04.244Z,60.50
2017-08-26T15:17:32.657Z,60.90
2017-08-26T15:20:02.003Z,60.80
2017-08-26T15:22:30.446Z,61.30
2017-08-26T15:24:59.009Z,61.20
2017-08-26T15:27:27.745Z,61.80
2017-08-26T15:29:56.173Z,61.70
2017-08-26T15:32:24.532Z,60.30
2017-08-26T15:34:53.242Z,60.60
2017-08-26T15:37:21.734Z,60.60
2017-08-26T15:39:51.003Z,61.00
2017-08-26T15:42:19.916Z,61.30
2017-08-26T15:44:48.528Z,61.80
2017-08-26T15:47:16.981Z,61.60
2017-08-26T15:49:47.177Z,61.70
2017-08-26T15:52:16.174Z,61.50
2017-08-26T15:54:44.514Z,61.40
2017-08-26T15:57:13.042Z,61.60
2017-08-26T15:59:41.380Z,61.30
2017-08-26T16:02:09.734Z,61.90
2017-08-26T16:04:38.257Z,62.00
2017-08-26T16:07:07.153Z,61.60
2017-08-26T16:09:36.092Z,60.80
2017-08-26T16:12:04.709Z,61.00
2017-08-26T16:14:33.052Z,60.00
2017-08-26T16:17:01.375Z,60.60
2017-08-26T16:19:29.769Z,60.50
2017-08-26T16:21:58.097Z,61.00
2017-08-26T16:24:26.410Z,61.30
2017-08-26T16:26:57.026Z,61.70
2017-08-26T16:29:25.413Z,61.60
2017-08-26T16:31:53.772Z,62.40
2017-08-26T16:34:22.457Z,61.20
2017-08-26T16:36:50.886Z,61.20
2017-08-26T16:39:23.019Z,61.10
2017-08-26T16:41:51.557Z,61.70
2017-08-26T16:44:20.235Z,61.30
2017-08-26T16:46:48.597Z,61.30
2017-08-26T16:49:17.250Z,60.80
2017-08-26T16:51:45.634Z,60.40
2017-08-26T16:54:13.949Z,60.30
2017-08-26T16:56:42.668Z,60.00
2017-08-26T16:59:10.980Z,60.90
2017-08-26T17:01:40.150Z,60.10
2017-08-26T17:04:08.676Z,60.80
2017-08-26T17:06:37.401Z,60.50
2017-08-26T17:09:05.748Z,61.00
2017-08-26T17:11:34.518Z,60.80
2017-08-26T17:14:02.867Z,60.80
2017-08-26T17:16:31.789Z,60.30
2017-08-26T17:19:00.391Z,60.90
2017-08-26T17:21:28.818Z,60.50
2017-08-26T17:23:59.827Z,61.20
2017-08-26T17:26:30.589Z,61.70
2017-08-26T17:29:03.385Z,62.60
2017-08-26T17:31:36.114Z,63.00
2017-08-26T17:34:04.451Z,63.40
2017-08-26T17:36:33.558Z,64.10
2017-08-26T17:39:02.229Z,64.00
2017-08-26T17:41:31.037Z,64.40
2017-08-26T17:43:59.537Z,64.80
2017-08-26T17:49:06.446Z,64.40
2017-08-26T17:51:35.314Z,64.70
2017-08-26T17:54:03.706Z,65.00
2017-08-26T17:56:32.077Z,64.80
2017-08-26T17:59:00.450Z,64.90
2017-08-26T18:01:28.795Z,65.10
2017-08-26T18:03:57.112Z,65.30
2017-08-26T18:06:25.719Z,65.00
2017-08-26T18:08:54.098Z,64.90
2017-08-26T18:11:22.458Z,64.90
2017-08-26T18:13:51.409Z,65.20
2017-08-26T18:16:19.793Z,65.40
2017-08-26T18:18:48.157Z,66.20
2017-08-26T18:21:16.708Z,67.40
2017-08-26T18:23:45.153Z,68.10
2017-08-26T18:26:13.612Z,68.50
2017-08-26T18:28:42.365Z,68.80
2017-08-26T18:31:10.706Z,69.00
2017-08-26T18:33:39.606Z,69.10
2017-08-26T18:36:08.206Z,68.90
2017-08-26T18:38:36.554Z,69.30
2017-08-26T18:41:04.929Z,69.40
2017-08-26T18:43:33.333Z,69.60
2017-08-26T18:46:01.768Z,70.00
2017-08-26T18:48:30.104Z,70.30
2017-08-26T18:50:58.551Z,70.80
2017-08-26T18:53:26.881Z,71.90
2017-08-26T18:55:55.263Z,73.20
2017-08-26T18:58:23.821Z,72.60
2017-08-26T19:00:52.200Z,72.80
2017-08-26T19:03:20.600Z,72.70
2017-08-26T19:05:48.978Z,72.60
2017-08-26T19:08:17.333Z,72.60
2017-08-26T19:10:45.670Z,71.80
2017-08-26T19:13:14.223Z,71.30
2017-08-26T19:15:42.729Z,71.30
2017-08-26T19:18:11.051Z,71.40
2017-08-26T19:20:39.403Z,71.40
2017-08-26T19:23:08.414Z,71.50
2017-08-26T19:25:37.616Z,71.60
2017-08-26T19:28:06.102Z,71.50
2017-08-26T19:30:34.460Z,71.60
2017-08-26T19:33:02.834Z,71.60
2017-08-26T19:35:31.374Z,71.20
2017-08-26T19:38:00.644Z,71.50
2017-08-26T19:40:28.984Z,71.40
2017-08-26T19:42:57.699Z,71.40
2017-08-26T19:45:26.088Z,72.40
2017-08-26T19:47:54.454Z,71.90
2017-08-26T19:50:23.276Z,72.40
2017-08-26T19:52:51.651Z,70.70
2017-08-26T19:55:20.376Z,71.10
2017-08-26T19:57:50.328Z,70.90
2017-08-26T20:00:19.145Z,71.30
2017-08-26T20:02:47.625Z,71.00
2017-08-26T20:05:16.222Z,71.80
2017-08-26T20:07:44.583Z,70.90
2017-08-26T20:10:13.092Z,71.10
2017-08-26T20:12:41.894Z,70.90
2017-08-26T20:15:10.202Z,70.90
2017-08-26T20:17:38.581Z,70.90
2017-08-26T20:20:07.349Z,71.50
2017-08-26T20:22:35.730Z,70.80
2017-08-26T20:25:04.085Z,70.10
2017-08-26T20:27:32.635Z,70.40
2017-08-26T20:30:00.994Z,70.50
2017-08-26T20:32:29.367Z,70.80
2017-08-26T20:34:58.053Z,71.00
2017-08-26T20:37:26.563Z,70.90
2017-08-26T20:39:54.955Z,71.50
2017-08-26T20:42:23.847Z,71.60
2017-08-26T20:44:52.805Z,71.50
2017-08-26T20:47:21.339Z,71.90
2017-08-26T20:49:50.201Z,72.80
2017-08-26T20:52:18.601Z,74.70
2017-08-26T20:54:47.665Z,74.70
2017-08-26T20:57:18.203Z,74.70
2017-08-26T20:59:46.605Z,75.00
2017-08-26T21:02:16.701Z,74.10
2017-08-26T21:04:45.526Z,74.30
2017-08-26T21:07:13.861Z,74.90
2017-08-26T21:09:42.185Z,74.90
2017-08-26T21:12:10.721Z,75.40
2017-08-26T21:14:39.046Z,75.50
2017-08-26T21:17:07.373Z,75.80
2017-08-26T21:19:35.975Z,76.20
2017-08-26T21:22:04.301Z,75.90
2017-08-26T21:24:33.667Z,76.30
2017-08-26T21:27:02.029Z,75.80
2017-08-26T21:29:31.370Z,75.50
2017-08-26T21:31:59.894Z,77.60
2017-08-26T21:34:28.613Z,77.60
2017-08-26T21:36:56.963Z,75.80
2017-08-26T21:39:25.296Z,76.20
2017-08-26T21:41:53.994Z,76.80
2017-08-26T21:44:22.333Z,76.60
2017-08-26T21:46:51.201Z,76.20
2017-08-26T21:49:19.794Z,76.70
2017-08-26T21:51:48.160Z,76.80
2017-08-26T21:54:16.510Z,78.30
2017-08-26T21:56:45.223Z,77.50
2017-08-26T21:59:13.545Z,77.20
2017-08-26T22:01:41.905Z,76.30
2017-08-26T22:04:10.540Z,76.20
2017-08-26T22:06:39.716Z,76.70
2017-08-26T22:09:08.062Z,77.00
2017-08-26T22:11:36.478Z,78.30
2017-08-26T22:14:04.875Z,79.30
2017-08-26T22:16:33.210Z,79.30
2017-08-26T22:19:02.525Z,79.40
2017-08-26T22:21:30.845Z,79.60
2017-08-26T22:23:59.958Z,79.60
2017-08-26T22:26:28.739Z,79.30
2017-08-26T22:28:57.087Z,79.00
2017-08-26T22:31:26.070Z,79.40
2017-08-26T22:33:55.997Z,80.50
2017-08-26T22:36:24.380Z,80.10
2017-08-26T22:38:53.489Z,80.00
2017-08-26T22:41:22.076Z,79.90
2017-08-26T22:43:50.426Z,80.70
2017-08-26T22:46:18.908Z,80.20
2017-08-26T22:48:47.384Z,80.10
2017-08-26T22:51:15.692Z,79.20
2017-08-26T22:53:44.593Z,79.80
2017-08-26T22:56:13.416Z,79.50
2017-08-26T22:58:41.836Z,79.70
2017-08-26T23:01:10.335Z,79.90
2017-08-26T23:03:38.877Z,79.30
2017-08-26T23:06:07.953Z,79.40
2017-08-26T23:08:36.300Z,79.40
2017-08-26T23:11:05.106Z,78.80
2017-08-26T23:13:33.541Z,79.90
2017-08-26T23:16:01.865Z,80.50
2017-08-26T23:18:30.352Z,80.70
2017-08-26T23:20:58.710Z,80.60
2017-08-26T23:23:27.021Z,80.60
2017-08-26T23:25:55.577Z,80.20
2017-08-26T23:28:24.016Z,80.00
2017-08-26T23:30:52.489Z,79.70
2017-08-26T23:33:21.220Z,79.70
2017-08-26T23:35:49.592Z,80.00
2017-08-26T23:38:17.996Z,80.60
2017-08-26T23:40:46.676Z,81.40
2017-08-26T23:43:15.035Z,81.40
2017-08-26T23:45:43.373Z,81.50
2017-08-26T23:48:12.076Z,81.60
2017-08-26T23:50:40.519Z,81.70
2017-08-26T23:53:08.887Z,82.40
2017-08-26T23:55:37.452Z,82.90
2017-08-26T23:58:05.787Z,82.50
